Terminal Aerodrome Forecast
Issued by NWS

Home | Current Version | Previous Version | Text Only | Print | Product List | Glossary On
Versions: 1 2 3 4 5 6 7 8 9 10 11 12 13
412
FTAK31 PAJN 240521
TAFASI
TAF
PASI 240521Z 2406/2506 VRB04KT P6SM VCSH BKN060 OVC080
     FM240800 11005KT P6SM -RA OVC040 WS020/14030KT
     FM242200 16009KT P6SM VCSH OVC035
     FM250200 18007KT P6SM VCSH BKN025 OVC035=

USA.gov is the U.S. government's official web portal to all federal, state and local government web resources and services.